sensor_id;sensor_type;location;lat;lon;timestamp;temperature;humidity
11989;DHT22;6054;50.966;7.094;2023-05-29T00:00:57;27.40;37.60
11989;DHT22;6054;50.966;7.094;2023-05-29T00:03:25;27.40;37.60
11989;DHT22;6054;50.966;7.094;2023-05-29T00:05:53;27.40;37.60
11989;DHT22;6054;50.966;7.094;2023-05-29T00:08:20;27.30;37.60
11989;DHT22;6054;50.966;7.094;2023-05-29T00:10:46;27.10;37.50
11989;DHT22;6054;50.966;7.094;2023-05-29T00:13:13;27.40;37.70
11989;DHT22;6054;50.966;7.094;2023-05-29T00:15:40;27.30;37.80
11989;DHT22;6054;50.966;7.094;2023-05-29T00:18:06;27.30;37.80
11989;DHT22;6054;50.966;7.094;2023-05-29T00:20:33;27.50;37.90
11989;DHT22;6054;50.966;7.094;2023-05-29T00:23:02;27.40;38.00
11989;DHT22;6054;50.966;7.094;2023-05-29T00:25:31;27.20;37.90
11989;DHT22;6054;50.966;7.094;2023-05-29T00:27:58;27.20;37.90
11989;DHT22;6054;50.966;7.094;2023-05-29T00:30:25;27.20;38.20
11989;DHT22;6054;50.966;7.094;2023-05-29T00:32:52;27.30;38.10
11989;DHT22;6054;50.966;7.094;2023-05-29T00:35:19;27.10;38.00
11989;DHT22;6054;50.966;7.094;2023-05-29T00:37:46;27.00;38.00
11989;DHT22;6054;50.966;7.094;2023-05-29T00:40:14;27.00;37.90
11989;DHT22;6054;50.966;7.094;2023-05-29T00:42:41;27.00;38.70
11989;DHT22;6054;50.966;7.094;2023-05-29T00:45:08;27.00;38.40
11989;DHT22;6054;50.966;7.094;2023-05-29T00:47:36;27.00;38.80
11989;DHT22;6054;50.966;7.094;2023-05-29T00:50:04;26.90;38.70
11989;DHT22;6054;50.966;7.094;2023-05-29T00:52:31;26.90;38.80
11989;DHT22;6054;50.966;7.094;2023-05-29T00:54:58;26.90;39.00
11989;DHT22;6054;50.966;7.094;2023-05-29T00:57:29;26.90;38.90
11989;DHT22;6054;50.966;7.094;2023-05-29T00:59:56;26.80;38.80
11989;DHT22;6054;50.966;7.094;2023-05-29T01:02:23;26.70;38.90
11989;DHT22;6054;50.966;7.094;2023-05-29T01:04:50;26.70;38.70
11989;DHT22;6054;50.966;7.094;2023-05-29T01:07:19;26.70;38.80
11989;DHT22;6054;50.966;7.094;2023-05-29T01:09:46;26.80;38.80
11989;DHT22;6054;50.966;7.094;2023-05-29T01:12:19;26.60;38.80
11989;DHT22;6054;50.966;7.094;2023-05-29T01:15:04;26.80;40.00
11989;DHT22;6054;50.966;7.094;2023-05-29T01:17:43;26.60;39.30
11989;DHT22;6054;50.966;7.094;2023-05-29T01:20:23;26.50;39.20
11989;DHT22;6054;50.966;7.094;2023-05-29T01:23:17;26.70;39.30
11989;DHT22;6054;50.966;7.094;2023-05-29T01:26:02;26.40;39.30
11989;DHT22;6054;50.966;7.094;2023-05-29T01:28:40;26.40;39.30
11989;DHT22;6054;50.966;7.094;2023-05-29T01:31:09;26.30;39.40
11989;DHT22;6054;50.966;7.094;2023-05-29T01:33:39;26.30;39.00
11989;DHT22;6054;50.966;7.094;2023-05-29T01:36:07;26.30;39.50
11989;DHT22;6054;50.966;7.094;2023-05-29T01:38:35;26.20;39.50
11989;DHT22;6054;50.966;7.094;2023-05-29T01:41:03;26.20;39.50
11989;DHT22;6054;50.966;7.094;2023-05-29T01:43:30;26.10;39.30
11989;DHT22;6054;50.966;7.094;2023-05-29T01:45:59;26.10;39.80
11989;DHT22;6054;50.966;7.094;2023-05-29T01:48:27;26.10;39.60
11989;DHT22;6054;50.966;7.094;2023-05-29T01:50:55;26.00;39.80
11989;DHT22;6054;50.966;7.094;2023-05-29T01:53:23;26.00;39.80
11989;DHT22;6054;50.966;7.094;2023-05-29T01:55:50;26.00;39.30
11989;DHT22;6054;50.966;7.094;2023-05-29T01:58:18;26.10;39.60
11989;DHT22;6054;50.966;7.094;2023-05-29T02:00:46;26.10;39.40
11989;DHT22;6054;50.966;7.094;2023-05-29T02:03:14;25.90;39.10
11989;DHT22;6054;50.966;7.094;2023-05-29T02:05:41;25.80;39.30
11989;DHT22;6054;50.966;7.094;2023-05-29T02:08:08;26.00;39.30
11989;DHT22;6054;50.966;7.094;2023-05-29T02:10:35;25.70;39.10
11989;DHT22;6054;50.966;7.094;2023-05-29T02:13:01;25.70;38.70
11989;DHT22;6054;50.966;7.094;2023-05-29T02:15:28;25.60;38.90
11989;DHT22;6054;50.966;7.094;2023-05-29T02:17:55;25.60;38.90
11989;DHT22;6054;50.966;7.094;2023-05-29T02:20:24;25.50;39.00
11989;DHT22;6054;50.966;7.094;2023-05-29T02:22:51;25.40;38.70
11989;DHT22;6054;50.966;7.094;2023-05-29T02:25:17;25.40;38.60
11989;DHT22;6054;50.966;7.094;2023-05-29T02:27:44;25.60;38.60
11989;DHT22;6054;50.966;7.094;2023-05-29T02:30:11;25.40;38.40
11989;DHT22;6054;50.966;7.094;2023-05-29T02:32:38;25.20;38.70
11989;DHT22;6054;50.966;7.094;2023-05-29T02:35:06;25.10;38.60
11989;DHT22;6054;50.966;7.094;2023-05-29T02:37:34;25.10;38.90
11989;DHT22;6054;50.966;7.094;2023-05-29T02:40:00;25.30;38.90
11989;DHT22;6054;50.966;7.094;2023-05-29T02:42:28;25.10;38.70
11989;DHT22;6054;50.966;7.094;2023-05-29T02:44:54;24.90;38.90
11989;DHT22;6054;50.966;7.094;2023-05-29T02:47:21;24.90;39.00
11989;DHT22;6054;50.966;7.094;2023-05-29T02:49:48;24.90;39.10
11989;DHT22;6054;50.966;7.094;2023-05-29T02:52:15;24.70;39.10
11989;DHT22;6054;50.966;7.094;2023-05-29T02:54:43;24.90;39.40
11989;DHT22;6054;50.966;7.094;2023-05-29T02:57:10;24.80;39.30
11989;DHT22;6054;50.966;7.094;2023-05-29T02:59:36;24.90;39.00
11989;DHT22;6054;50.966;7.094;2023-05-29T03:02:03;24.80;39.00
11989;DHT22;6054;50.966;7.094;2023-05-29T03:04:30;24.80;39.30
11989;DHT22;6054;50.966;7.094;2023-05-29T03:06:57;24.70;39.00
11989;DHT22;6054;50.966;7.094;2023-05-29T03:09:23;24.60;38.90
11989;DHT22;6054;50.966;7.094;2023-05-29T03:11:52;25.00;39.40
11989;DHT22;6054;50.966;7.094;2023-05-29T03:14:18;24.70;39.10
11989;DHT22;6054;50.966;7.094;2023-05-29T03:16:47;24.70;39.20
11989;DHT22;6054;50.966;7.094;2023-05-29T03:19:14;24.60;39.30
11989;DHT22;6054;50.966;7.094;2023-05-29T03:21:41;24.60;39.10
11989;DHT22;6054;50.966;7.094;2023-05-29T03:24:08;24.60;39.10
11989;DHT22;6054;50.966;7.094;2023-05-29T03:26:35;24.60;39.10
11989;DHT22;6054;50.966;7.094;2023-05-29T03:29:03;24.40;39.20
11989;DHT22;6054;50.966;7.094;2023-05-29T03:31:30;24.60;39.60
11989;DHT22;6054;50.966;7.094;2023-05-29T03:33:58;24.70;39.90
11989;DHT22;6054;50.966;7.094;2023-05-29T03:36:25;24.40;40.20
11989;DHT22;6054;50.966;7.094;2023-05-29T03:38:52;24.30;39.80
11989;DHT22;6054;50.966;7.094;2023-05-29T03:41:19;24.30;39.50
11989;DHT22;6054;50.966;7.094;2023-05-29T03:43:46;24.30;39.20
11989;DHT22;6054;50.966;7.094;2023-05-29T03:46:14;24.30;39.50
11989;DHT22;6054;50.966;7.094;2023-05-29T03:48:41;24.20;39.40
11989;DHT22;6054;50.966;7.094;2023-05-29T03:51:07;24.30;39.50
11989;DHT22;6054;50.966;7.094;2023-05-29T03:53:35;24.10;39.50
11989;DHT22;6054;50.966;7.094;2023-05-29T03:56:02;24.20;39.70
11989;DHT22;6054;50.966;7.094;2023-05-29T03:58:29;24.00;39.50
11989;DHT22;6054;50.966;7.094;2023-05-29T04:00:55;24.10;39.80
11989;DHT22;6054;50.966;7.094;2023-05-29T04:03:24;24.00;39.50
11989;DHT22;6054;50.966;7.094;2023-05-29T04:05:50;24.00;39.80
11989;DHT22;6054;50.966;7.094;2023-05-29T04:08:17;24.10;40.00
11989;DHT22;6054;50.966;7.094;2023-05-29T04:10:44;23.90;39.90
11989;DHT22;6054;50.966;7.094;2023-05-29T04:13:12;24.10;40.10
11989;DHT22;6054;50.966;7.094;2023-05-29T04:15:38;23.90;40.00
11989;DHT22;6054;50.966;7.094;2023-05-29T04:18:07;23.80;40.00
11989;DHT22;6054;50.966;7.094;2023-05-29T04:20:35;23.90;40.10
11989;DHT22;6054;50.966;7.094;2023-05-29T04:23:02;23.90;40.20
11989;DHT22;6054;50.966;7.094;2023-05-29T04:25:28;23.90;40.00
11989;DHT22;6054;50.966;7.094;2023-05-29T04:27:55;23.90;40.00
11989;DHT22;6054;50.966;7.094;2023-05-29T04:30:22;23.90;40.10
11989;DHT22;6054;50.966;7.094;2023-05-29T04:32:49;23.90;40.20
11989;DHT22;6054;50.966;7.094;2023-05-29T04:35:17;24.00;40.60
11989;DHT22;6054;50.966;7.094;2023-05-29T04:37:45;23.90;40.20
11989;DHT22;6054;50.966;7.094;2023-05-29T04:40:12;23.90;40.20
11989;DHT22;6054;50.966;7.094;2023-05-29T04:42:43;23.90;40.40
11989;DHT22;6054;50.966;7.094;2023-05-29T04:45:11;24.10;40.80
11989;DHT22;6054;50.966;7.094;2023-05-29T04:47:38;23.90;40.30
11989;DHT22;6054;50.966;7.094;2023-05-29T04:50:10;23.90;40.40
11989;DHT22;6054;50.966;7.094;2023-05-29T04:52:37;23.90;40.70
11989;DHT22;6054;50.966;7.094;2023-05-29T04:55:06;23.90;40.30
11989;DHT22;6054;50.966;7.094;2023-05-29T04:57:33;23.90;40.60
11989;DHT22;6054;50.966;7.094;2023-05-29T04:59:59;23.80;40.30
11989;DHT22;6054;50.966;7.094;2023-05-29T05:02:27;23.80;40.30
11989;DHT22;6054;50.966;7.094;2023-05-29T05:04:54;23.80;40.40
11989;DHT22;6054;50.966;7.094;2023-05-29T05:07:21;23.80;40.50
11989;DHT22;6054;50.966;7.094;2023-05-29T05:09:47;24.10;40.60
11989;DHT22;6054;50.966;7.094;2023-05-29T05:12:15;24.00;40.40
11989;DHT22;6054;50.966;7.094;2023-05-29T05:14:42;23.90;40.70
11989;DHT22;6054;50.966;7.094;2023-05-29T05:17:09;23.90;40.80
11989;DHT22;6054;50.966;7.094;2023-05-29T05:19:36;23.90;41.20
11989;DHT22;6054;50.966;7.094;2023-05-29T05:22:02;24.00;40.60
11989;DHT22;6054;50.966;7.094;2023-05-29T05:24:30;24.00;40.70
11989;DHT22;6054;50.966;7.094;2023-05-29T05:26:57;24.10;40.90
11989;DHT22;6054;50.966;7.094;2023-05-29T05:29:26;24.10;40.70
11989;DHT22;6054;50.966;7.094;2023-05-29T05:31:53;24.30;40.50
11989;DHT22;6054;50.966;7.094;2023-05-29T05:34:20;24.20;40.20
11989;DHT22;6054;50.966;7.094;2023-05-29T05:36:47;24.30;40.70
11989;DHT22;6054;50.966;7.094;2023-05-29T05:39:14;24.30;40.30
11989;DHT22;6054;50.966;7.094;2023-05-29T05:41:41;24.50;40.80
11989;DHT22;6054;50.966;7.094;2023-05-29T05:44:08;24.30;40.20
11989;DHT22;6054;50.966;7.094;2023-05-29T05:46:36;24.40;40.40
11989;DHT22;6054;50.966;7.094;2023-05-29T05:49:03;24.40;40.50
11989;DHT22;6054;50.966;7.094;2023-05-29T05:51:30;24.40;40.70
11989;DHT22;6054;50.966;7.094;2023-05-29T05:53:57;24.50;40.90
11989;DHT22;6054;50.966;7.094;2023-05-29T05:56:24;24.50;40.50
11989;DHT22;6054;50.966;7.094;2023-05-29T05:58:51;24.50;40.30
11989;DHT22;6054;50.966;7.094;2023-05-29T06:01:18;24.60;39.50
11989;DHT22;6054;50.966;7.094;2023-05-29T06:03:47;24.90;40.60
11989;DHT22;6054;50.966;7.094;2023-05-29T06:06:13;24.60;39.70
11989;DHT22;6054;50.966;7.094;2023-05-29T06:08:42;24.70;40.00
11989;DHT22;6054;50.966;7.094;2023-05-29T06:11:10;24.90;40.40
11989;DHT22;6054;50.966;7.094;2023-05-29T06:13:37;24.90;40.30
11989;DHT22;6054;50.966;7.094;2023-05-29T06:16:04;24.90;40.50
11989;DHT22;6054;50.966;7.094;2023-05-29T06:18:31;24.80;40.80
11989;DHT22;6054;50.966;7.094;2023-05-29T06:20:59;24.80;39.80
11989;DHT22;6054;50.966;7.094;2023-05-29T06:23:26;24.80;40.00
11989;DHT22;6054;50.966;7.094;2023-05-29T06:25:53;25.00;40.30
11989;DHT22;6054;50.966;7.094;2023-05-29T06:28:20;25.20;40.00
11989;DHT22;6054;50.966;7.094;2023-05-29T06:30:47;25.00;40.20
11989;DHT22;6054;50.966;7.094;2023-05-29T06:33:14;25.00;39.70
11989;DHT22;6054;50.966;7.094;2023-05-29T06:35:41;25.10;40.00
11989;DHT22;6054;50.966;7.094;2023-05-29T06:38:09;25.10;39.80
11989;DHT22;6054;50.966;7.094;2023-05-29T06:40:36;25.20;39.80
11989;DHT22;6054;50.966;7.094;2023-05-29T06:43:04;25.20;39.30
11989;DHT22;6054;50.966;7.094;2023-05-29T06:45:30;25.20;39.40
11989;DHT22;6054;50.966;7.094;2023-05-29T06:47:57;25.30;38.90
11989;DHT22;6054;50.966;7.094;2023-05-29T06:50:24;25.30;39.00
11989;DHT22;6054;50.966;7.094;2023-05-29T06:52:51;25.40;38.10
11989;DHT22;6054;50.966;7.094;2023-05-29T06:55:19;25.40;37.50
11989;DHT22;6054;50.966;7.094;2023-05-29T06:57:46;25.70;38.20
11989;DHT22;6054;50.966;7.094;2023-05-29T07:00:14;25.70;38.70
11989;DHT22;6054;50.966;7.094;2023-05-29T07:02:41;25.60;39.00
11989;DHT22;6054;50.966;7.094;2023-05-29T07:05:08;25.60;38.50
11989;DHT22;6054;50.966;7.094;2023-05-29T07:07:35;25.70;38.90
11989;DHT22;6054;50.966;7.094;2023-05-29T07:10:01;25.70;38.70
11989;DHT22;6054;50.966;7.094;2023-05-29T07:12:30;25.80;38.50
11989;DHT22;6054;50.966;7.094;2023-05-29T07:14:56;25.90;38.10
11989;DHT22;6054;50.966;7.094;2023-05-29T07:17:23;25.90;38.10
11989;DHT22;6054;50.966;7.094;2023-05-29T07:19:50;25.90;37.90
11989;DHT22;6054;50.966;7.094;2023-05-29T07:22:17;26.30;37.40
11989;DHT22;6054;50.966;7.094;2023-05-29T07:24:44;26.10;38.10
11989;DHT22;6054;50.966;7.094;2023-05-29T07:27:11;26.10;38.50
11989;DHT22;6054;50.966;7.094;2023-05-29T07:29:40;26.20;37.90
11989;DHT22;6054;50.966;7.094;2023-05-29T07:32:06;26.20;37.90
11989;DHT22;6054;50.966;7.094;2023-05-29T07:34:33;26.30;36.50
11989;DHT22;6054;50.966;7.094;2023-05-29T07:37:02;26.40;37.10
11989;DHT22;6054;50.966;7.094;2023-05-29T07:39:29;26.40;37.70
11989;DHT22;6054;50.966;7.094;2023-05-29T07:41:56;26.40;37.50
11989;DHT22;6054;50.966;7.094;2023-05-29T07:44:23;26.50;37.50
11989;DHT22;6054;50.966;7.094;2023-05-29T07:46:51;26.70;37.20
11989;DHT22;6054;50.966;7.094;2023-05-29T07:49:19;26.60;36.40
11989;DHT22;6054;50.966;7.094;2023-05-29T07:51:46;26.80;37.60
11989;DHT22;6054;50.966;7.094;2023-05-29T07:54:13;26.90;36.90
11989;DHT22;6054;50.966;7.094;2023-05-29T07:56:43;27.00;36.70
11989;DHT22;6054;50.966;7.094;2023-05-29T07:59:10;27.00;37.20
11989;DHT22;6054;50.966;7.094;2023-05-29T08:01:37;27.20;36.90
11989;DHT22;6054;50.966;7.094;2023-05-29T08:04:06;27.00;37.10
11989;DHT22;6054;50.966;7.094;2023-05-29T08:06:33;27.10;37.10
11989;DHT22;6054;50.966;7.094;2023-05-29T08:08:59;27.10;36.80
11989;DHT22;6054;50.966;7.094;2023-05-29T08:11:26;27.20;36.70
11989;DHT22;6054;50.966;7.094;2023-05-29T08:13:53;27.30;36.50
11989;DHT22;6054;50.966;7.094;2023-05-29T08:16:20;27.50;35.80
11989;DHT22;6054;50.966;7.094;2023-05-29T08:18:48;27.50;36.10
11989;DHT22;6054;50.966;7.094;2023-05-29T08:21:17;27.50;35.90
11989;DHT22;6054;50.966;7.094;2023-05-29T08:23:44;27.60;36.10
11989;DHT22;6054;50.966;7.094;2023-05-29T08:26:10;27.80;36.50
11989;DHT22;6054;50.966;7.094;2023-05-29T08:28:37;27.80;35.80
11989;DHT22;6054;50.966;7.094;2023-05-29T08:31:04;27.70;35.80
11989;DHT22;6054;50.966;7.094;2023-05-29T08:33:31;27.80;36.00
11989;DHT22;6054;50.966;7.094;2023-05-29T08:35:59;27.90;35.80
11989;DHT22;6054;50.966;7.094;2023-05-29T08:38:27;28.00;35.80
11989;DHT22;6054;50.966;7.094;2023-05-29T08:40:56;28.00;35.20
11989;DHT22;6054;50.966;7.094;2023-05-29T08:43:24;28.20;36.00
11989;DHT22;6054;50.966;7.094;2023-05-29T08:45:53;28.10;35.50
11989;DHT22;6054;50.966;7.094;2023-05-29T08:48:22;28.20;35.20
11989;DHT22;6054;50.966;7.094;2023-05-29T08:50:49;28.30;35.80
11989;DHT22;6054;50.966;7.094;2023-05-29T08:53:18;28.30;35.70
11989;DHT22;6054;50.966;7.094;2023-05-29T08:55:47;28.50;35.40
11989;DHT22;6054;50.966;7.094;2023-05-29T08:58:14;28.70;35.20
11989;DHT22;6054;50.966;7.094;2023-05-29T09:00:41;28.80;35.20
11989;DHT22;6054;50.966;7.094;2023-05-29T09:03:08;28.70;35.10
11989;DHT22;6054;50.966;7.094;2023-05-29T09:05:35;28.70;35.10
11989;DHT22;6054;50.966;7.094;2023-05-29T09:08:05;28.80;35.60
11989;DHT22;6054;50.966;7.094;2023-05-29T09:10:32;29.00;35.40
11989;DHT22;6054;50.966;7.094;2023-05-29T09:13:01;29.20;34.80
11989;DHT22;6054;50.966;7.094;2023-05-29T09:15:29;29.20;34.60
11989;DHT22;6054;50.966;7.094;2023-05-29T09:17:57;29.10;34.70
11989;DHT22;6054;50.966;7.094;2023-05-29T09:20:26;29.10;34.60
11989;DHT22;6054;50.966;7.094;2023-05-29T09:22:53;29.20;34.60
11989;DHT22;6054;50.966;7.094;2023-05-29T09:25:22;29.30;34.60
11989;DHT22;6054;50.966;7.094;2023-05-29T09:27:51;29.40;34.60
11989;DHT22;6054;50.966;7.094;2023-05-29T09:30:33;29.60;34.50
11989;DHT22;6054;50.966;7.094;2023-05-29T09:33:01;29.40;34.30
11989;DHT22;6054;50.966;7.094;2023-05-29T09:35:35;29.60;34.30
11989;DHT22;6054;50.966;7.094;2023-05-29T09:38:02;29.50;34.30
11989;DHT22;6054;50.966;7.094;2023-05-29T09:40:30;29.70;34.40
11989;DHT22;6054;50.966;7.094;2023-05-29T09:43:05;29.70;34.40
11989;DHT22;6054;50.966;7.094;2023-05-29T09:45:37;29.70;34.30
11989;DHT22;6054;50.966;7.094;2023-05-29T09:48:05;29.90;34.20
11989;DHT22;6054;50.966;7.094;2023-05-29T09:50:33;29.80;34.10
11989;DHT22;6054;50.966;7.094;2023-05-29T09:53:00;29.80;33.70
11989;DHT22;6054;50.966;7.094;2023-05-29T09:55:28;29.80;33.90
11989;DHT22;6054;50.966;7.094;2023-05-29T09:57:55;29.80;34.10
11989;DHT22;6054;50.966;7.094;2023-05-29T10:00:22;29.90;33.70
11989;DHT22;6054;50.966;7.094;2023-05-29T10:02:50;30.00;33.50
11989;DHT22;6054;50.966;7.094;2023-05-29T10:05:17;29.90;33.70
11989;DHT22;6054;50.966;7.094;2023-05-29T10:07:46;29.90;33.30
11989;DHT22;6054;50.966;7.094;2023-05-29T10:10:14;30.00;33.70
11989;DHT22;6054;50.966;7.094;2023-05-29T10:12:44;30.10;33.90
11989;DHT22;6054;50.966;7.094;2023-05-29T10:15:12;30.10;33.90
11989;DHT22;6054;50.966;7.094;2023-05-29T10:17:44;30.40;34.20
11989;DHT22;6054;50.966;7.094;2023-05-29T10:20:17;30.40;34.40
11989;DHT22;6054;50.966;7.094;2023-05-29T10:22:46;30.40;33.60
11989;DHT22;6054;50.966;7.094;2023-05-29T10:25:14;30.60;33.60
11989;DHT22;6054;50.966;7.094;2023-05-29T10:27:43;30.70;33.20
11989;DHT22;6054;50.966;7.094;2023-05-29T10:30:16;30.60;32.40
11989;DHT22;6054;50.966;7.094;2023-05-29T10:33:00;30.50;32.90
11989;DHT22;6054;50.966;7.094;2023-05-29T10:35:40;30.80;32.80
11989;DHT22;6054;50.966;7.094;2023-05-29T10:38:11;30.80;33.00
11989;DHT22;6054;50.966;7.094;2023-05-29T10:40:39;30.80;32.70
11989;DHT22;6054;50.966;7.094;2023-05-29T10:43:06;30.80;32.00
11989;DHT22;6054;50.966;7.094;2023-05-29T10:45:49;31.10;31.80
11989;DHT22;6054;50.966;7.094;2023-05-29T10:48:36;30.90;32.60
11989;DHT22;6054;50.966;7.094;2023-05-29T10:51:05;30.80;32.90
11989;DHT22;6054;50.966;7.094;2023-05-29T10:53:33;30.90;32.90
11989;DHT22;6054;50.966;7.094;2023-05-29T10:56:08;30.90;31.80
11989;DHT22;6054;50.966;7.094;2023-05-29T10:58:36;30.90;32.10
11989;DHT22;6054;50.966;7.094;2023-05-29T11:01:03;30.90;32.30
11989;DHT22;6054;50.966;7.094;2023-05-29T11:03:31;31.10;32.30
11989;DHT22;6054;50.966;7.094;2023-05-29T11:06:00;31.00;32.50
11989;DHT22;6054;50.966;7.094;2023-05-29T11:08:34;31.10;32.70
11989;DHT22;6054;50.966;7.094;2023-05-29T11:11:02;31.10;32.50
11989;DHT22;6054;50.966;7.094;2023-05-29T11:13:32;31.10;32.40
11989;DHT22;6054;50.966;7.094;2023-05-29T11:16:11;31.10;32.20
11989;DHT22;6054;50.966;7.094;2023-05-29T11:18:41;31.10;32.50
11989;DHT22;6054;50.966;7.094;2023-05-29T11:21:19;31.10;32.40
11989;DHT22;6054;50.966;7.094;2023-05-29T11:23:50;31.20;32.70
11989;DHT22;6054;50.966;7.094;2023-05-29T11:26:18;31.40;32.50
11989;DHT22;6054;50.966;7.094;2023-05-29T11:28:45;31.10;32.10
11989;DHT22;6054;50.966;7.094;2023-05-29T11:31:13;31.30;31.40
11989;DHT22;6054;50.966;7.094;2023-05-29T11:33:41;31.30;32.10
11989;DHT22;6054;50.966;7.094;2023-05-29T11:36:12;31.40;31.90
11989;DHT22;6054;50.966;7.094;2023-05-29T11:38:38;31.40;31.60
11989;DHT22;6054;50.966;7.094;2023-05-29T11:41:07;31.40;31.60
11989;DHT22;6054;50.966;7.094;2023-05-29T11:43:35;31.40;32.40
11989;DHT22;6054;50.966;7.094;2023-05-29T11:46:02;31.40;32.00
11989;DHT22;6054;50.966;7.094;2023-05-29T11:48:29;31.50;32.10
11989;DHT22;6054;50.966;7.094;2023-05-29T11:50:55;31.50;31.90
11989;DHT22;6054;50.966;7.094;2023-05-29T11:53:23;31.50;31.90
11989;DHT22;6054;50.966;7.094;2023-05-29T11:55:52;31.60;31.90
11989;DHT22;6054;50.966;7.094;2023-05-29T11:58:20;31.60;31.70
11989;DHT22;6054;50.966;7.094;2023-05-29T12:00:47;31.60;31.40
11989;DHT22;6054;50.966;7.094;2023-05-29T12:03:16;31.70;31.60
11989;DHT22;6054;50.966;7.094;2023-05-29T12:05:47;31.60;30.50
11989;DHT22;6054;50.966;7.094;2023-05-29T12:08:21;31.60;31.50
11989;DHT22;6054;50.966;7.094;2023-05-29T12:10:48;31.60;30.90
11989;DHT22;6054;50.966;7.094;2023-05-29T12:13:15;31.60;30.60
11989;DHT22;6054;50.966;7.094;2023-05-29T12:15:45;31.70;30.90
11989;DHT22;6054;50.966;7.094;2023-05-29T12:18:15;31.70;30.50
11989;DHT22;6054;50.966;7.094;2023-05-29T12:20:42;31.70;31.30
11989;DHT22;6054;50.966;7.094;2023-05-29T12:23:10;31.70;30.30
11989;DHT22;6054;50.966;7.094;2023-05-29T12:25:39;31.80;30.60
11989;DHT22;6054;50.966;7.094;2023-05-29T12:28:08;31.80;30.30
11989;DHT22;6054;50.966;7.094;2023-05-29T12:30:38;31.80;30.90
11989;DHT22;6054;50.966;7.094;2023-05-29T12:33:09;31.80;30.50
11989;DHT22;6054;50.966;7.094;2023-05-29T12:35:36;31.80;30.60
11989;DHT22;6054;50.966;7.094;2023-05-29T12:38:05;31.90;30.80
11989;DHT22;6054;50.966;7.094;2023-05-29T12:40:34;31.90;30.60
11989;DHT22;6054;50.966;7.094;2023-05-29T12:43:03;32.00;30.10
11989;DHT22;6054;50.966;7.094;2023-05-29T12:45:31;32.00;30.80
11989;DHT22;6054;50.966;7.094;2023-05-29T12:47:59;32.00;30.60
11989;DHT22;6054;50.966;7.094;2023-05-29T12:50:30;31.90;30.50
11989;DHT22;6054;50.966;7.094;2023-05-29T12:52:59;31.90;30.60
11989;DHT22;6054;50.966;7.094;2023-05-29T12:55:26;31.90;30.50
11989;DHT22;6054;50.966;7.094;2023-05-29T12:57:54;31.90;30.20
11989;DHT22;6054;50.966;7.094;2023-05-29T13:00:21;31.90;29.60
11989;DHT22;6054;50.966;7.094;2023-05-29T13:02:49;31.90;30.30
11989;DHT22;6054;50.966;7.094;2023-05-29T13:05:16;31.90;30.10
11989;DHT22;6054;50.966;7.094;2023-05-29T13:07:46;31.90;30.00
11989;DHT22;6054;50.966;7.094;2023-05-29T13:10:13;31.90;29.70
11989;DHT22;6054;50.966;7.094;2023-05-29T13:12:40;31.90;30.00
11989;DHT22;6054;50.966;7.094;2023-05-29T13:15:11;31.90;30.20
11989;DHT22;6054;50.966;7.094;2023-05-29T13:17:38;31.90;30.30
11989;DHT22;6054;50.966;7.094;2023-05-29T13:20:08;32.00;30.50
11989;DHT22;6054;50.966;7.094;2023-05-29T13:22:35;31.90;30.20
11989;DHT22;6054;50.966;7.094;2023-05-29T13:25:04;31.90;29.40
11989;DHT22;6054;50.966;7.094;2023-05-29T13:27:33;31.90;30.40
11989;DHT22;6054;50.966;7.094;2023-05-29T13:30:00;31.80;30.40
11989;DHT22;6054;50.966;7.094;2023-05-29T13:32:27;31.80;30.60
11989;DHT22;6054;50.966;7.094;2023-05-29T13:34:54;31.90;29.80
11989;DHT22;6054;50.966;7.094;2023-05-29T13:37:21;31.90;29.70
11989;DHT22;6054;50.966;7.094;2023-05-29T13:39:48;31.90;29.80
11989;DHT22;6054;50.966;7.094;2023-05-29T13:42:18;31.80;30.00
11989;DHT22;6054;50.966;7.094;2023-05-29T13:44:44;31.90;29.80
11989;DHT22;6054;50.966;7.094;2023-05-29T13:47:12;31.90;29.60
11989;DHT22;6054;50.966;7.094;2023-05-29T13:49:39;31.90;30.00
11989;DHT22;6054;50.966;7.094;2023-05-29T13:52:06;31.90;29.70
11989;DHT22;6054;50.966;7.094;2023-05-29T13:54:33;31.70;30.00
11989;DHT22;6054;50.966;7.094;2023-05-29T13:57:01;31.70;30.00
11989;DHT22;6054;50.966;7.094;2023-05-29T13:59:30;31.70;29.60
11989;DHT22;6054;50.966;7.094;2023-05-29T14:01:56;31.80;29.60
11989;DHT22;6054;50.966;7.094;2023-05-29T14:04:24;31.70;29.60
11989;DHT22;6054;50.966;7.094;2023-05-29T14:06:51;31.70;29.50
11989;DHT22;6054;50.966;7.094;2023-05-29T14:09:18;31.80;29.80
11989;DHT22;6054;50.966;7.094;2023-05-29T14:11:52;31.70;29.80
11989;DHT22;6054;50.966;7.094;2023-05-29T14:14:18;31.70;29.80
11989;DHT22;6054;50.966;7.094;2023-05-29T14:16:47;31.70;28.90
11989;DHT22;6054;50.966;7.094;2023-05-29T14:19:14;31.70;29.60
11989;DHT22;6054;50.966;7.094;2023-05-29T14:21:41;31.60;29.20
11989;DHT22;6054;50.966;7.094;2023-05-29T14:24:08;31.70;29.10
11989;DHT22;6054;50.966;7.094;2023-05-29T14:26:34;31.70;29.10
11989;DHT22;6054;50.966;7.094;2023-05-29T14:29:02;31.60;29.40
11989;DHT22;6054;50.966;7.094;2023-05-29T14:31:29;31.70;29.30
11989;DHT22;6054;50.966;7.094;2023-05-29T14:33:57;31.90;29.50
11989;DHT22;6054;50.966;7.094;2023-05-29T14:36:24;31.60;28.80
11989;DHT22;6054;50.966;7.094;2023-05-29T14:38:51;31.60;29.30
11989;DHT22;6054;50.966;7.094;2023-05-29T14:41:17;31.70;29.40
11989;DHT22;6054;50.966;7.094;2023-05-29T14:43:45;31.70;29.40
11989;DHT22;6054;50.966;7.094;2023-05-29T14:46:12;31.70;29.40
11989;DHT22;6054;50.966;7.094;2023-05-29T14:48:39;31.70;29.30
11989;DHT22;6054;50.966;7.094;2023-05-29T14:51:07;31.80;29.80
11989;DHT22;6054;50.966;7.094;2023-05-29T14:53:35;31.90;30.00
11989;DHT22;6054;50.966;7.094;2023-05-29T14:56:03;31.90;29.80
11989;DHT22;6054;50.966;7.094;2023-05-29T14:58:30;32.00;29.60
11989;DHT22;6054;50.966;7.094;2023-05-29T15:00:57;32.20;29.40
11989;DHT22;6054;50.966;7.094;2023-05-29T15:03:24;32.20;29.40
11989;DHT22;6054;50.966;7.094;2023-05-29T15:05:52;32.20;29.30
11989;DHT22;6054;50.966;7.094;2023-05-29T15:08:20;32.10;29.40
11989;DHT22;6054;50.966;7.094;2023-05-29T15:10:47;32.30;29.50
11989;DHT22;6054;50.966;7.094;2023-05-29T15:13:14;32.00;29.40
11989;DHT22;6054;50.966;7.094;2023-05-29T15:15:41;31.90;29.30
11989;DHT22;6054;50.966;7.094;2023-05-29T15:18:07;31.90;29.50
11989;DHT22;6054;50.966;7.094;2023-05-29T15:20:34;32.00;29.50
11989;DHT22;6054;50.966;7.094;2023-05-29T15:23:01;32.00;29.40
11989;DHT22;6054;50.966;7.094;2023-05-29T15:25:29;32.10;29.40
11989;DHT22;6054;50.966;7.094;2023-05-29T15:27:56;32.20;29.40
11989;DHT22;6054;50.966;7.094;2023-05-29T15:30:24;32.50;29.30
11989;DHT22;6054;50.966;7.094;2023-05-29T15:32:51;32.40;28.90
11989;DHT22;6054;50.966;7.094;2023-05-29T15:35:17;32.40;28.50
11989;DHT22;6054;50.966;7.094;2023-05-29T15:37:44;32.40;28.70
11989;DHT22;6054;50.966;7.094;2023-05-29T15:40:11;32.40;28.70
11989;DHT22;6054;50.966;7.094;2023-05-29T15:42:39;32.30;28.80
11989;DHT22;6054;50.966;7.094;2023-05-29T15:45:07;32.30;28.80
11989;DHT22;6054;50.966;7.094;2023-05-29T15:47:33;32.30;28.70
11989;DHT22;6054;50.966;7.094;2023-05-29T15:50:00;32.20;28.70